sensor_id;sensor_type;location;lat;lon;timestamp;P1;durP1;ratioP1;P2;durP2;ratioP2
2299;SDS011;1158;48.750;9.078;2023-01-30T00:01:19;40.03;;;14.10;;
2299;SDS011;1158;48.750;9.078;2023-01-30T00:03:47;29.57;;;14.60;;
2299;SDS011;1158;48.750;9.078;2023-01-30T00:06:14;34.90;;;14.27;;
2299;SDS011;1158;48.750;9.078;2023-01-30T00:08:41;24.60;;;14.10;;
2299;SDS011;1158;48.750;9.078;2023-01-30T00:11:09;28.30;;;14.17;;
2299;SDS011;1158;48.750;9.078;2023-01-30T00:13:37;32.17;;;13.50;;
2299;SDS011;1158;48.750;9.078;2023-01-30T00:16:05;30.63;;;15.13;;
2299;SDS011;1158;48.750;9.078;2023-01-30T00:18:33;29.50;;;14.10;;
2299;SDS011;1158;48.750;9.078;2023-01-30T00:21:01;30.40;;;14.60;;
2299;SDS011;1158;48.750;9.078;2023-01-30T00:23:30;27.63;;;14.33;;
2299;SDS011;1158;48.750;9.078;2023-01-30T00:25:57;29.60;;;12.90;;
2299;SDS011;1158;48.750;9.078;2023-01-30T00:28:25;29.33;;;14.50;;
2299;SDS011;1158;48.750;9.078;2023-01-30T00:30:53;28.70;;;14.93;;
2299;SDS011;1158;48.750;9.078;2023-01-30T00:33:21;34.63;;;17.00;;
2299;SDS011;1158;48.750;9.078;2023-01-30T00:35:49;28.80;;;14.40;;
2299;SDS011;1158;48.750;9.078;2023-01-30T00:38:17;29.90;;;14.67;;
2299;SDS011;1158;48.750;9.078;2023-01-30T00:40:45;25.07;;;14.50;;
2299;SDS011;1158;48.750;9.078;2023-01-30T00:43:12;25.50;;;13.40;;
2299;SDS011;1158;48.750;9.078;2023-01-30T00:45:59;24.17;;;12.27;;
2299;SDS011;1158;48.750;9.078;2023-01-30T00:48:47;27.70;;;13.67;;
2299;SDS011;1158;48.750;9.078;2023-01-30T00:51:14;27.53;;;13.07;;
2299;SDS011;1158;48.750;9.078;2023-01-30T00:53:40;26.50;;;14.03;;
2299;SDS011;1158;48.750;9.078;2023-01-30T00:56:07;30.40;;;14.83;;
2299;SDS011;1158;48.750;9.078;2023-01-30T00:58:34;26.90;;;14.07;;
2299;SDS011;1158;48.750;9.078;2023-01-30T01:01:02;28.97;;;13.60;;
2299;SDS011;1158;48.750;9.078;2023-01-30T01:03:28;32.83;;;15.53;;
2299;SDS011;1158;48.750;9.078;2023-01-30T01:05:55;23.13;;;11.57;;
2299;SDS011;1158;48.750;9.078;2023-01-30T01:08:22;28.40;;;15.03;;
2299;SDS011;1158;48.750;9.078;2023-01-30T01:10:48;28.40;;;13.47;;
2299;SDS011;1158;48.750;9.078;2023-01-30T01:13:15;27.90;;;13.20;;
2299;SDS011;1158;48.750;9.078;2023-01-30T01:15:42;25.97;;;13.10;;
2299;SDS011;1158;48.750;9.078;2023-01-30T01:18:10;27.70;;;13.40;;
2299;SDS011;1158;48.750;9.078;2023-01-30T01:20:37;30.57;;;15.60;;
2299;SDS011;1158;48.750;9.078;2023-01-30T01:23:03;33.70;;;16.10;;
2299;SDS011;1158;48.750;9.078;2023-01-30T01:25:30;33.53;;;16.40;;
2299;SDS011;1158;48.750;9.078;2023-01-30T01:27:57;30.93;;;15.90;;
2299;SDS011;1158;48.750;9.078;2023-01-30T01:30:24;32.73;;;15.77;;
2299;SDS011;1158;48.750;9.078;2023-01-30T01:32:50;37.53;;;17.87;;
2299;SDS011;1158;48.750;9.078;2023-01-30T01:35:18;32.60;;;15.97;;
2299;SDS011;1158;48.750;9.078;2023-01-30T01:37:45;33.73;;;16.00;;
2299;SDS011;1158;48.750;9.078;2023-01-30T01:40:15;33.50;;;17.53;;
2299;SDS011;1158;48.750;9.078;2023-01-30T01:43:01;28.03;;;14.27;;
2299;SDS011;1158;48.750;9.078;2023-01-30T01:45:28;27.67;;;14.30;;
2299;SDS011;1158;48.750;9.078;2023-01-30T01:47:58;25.90;;;13.40;;
2299;SDS011;1158;48.750;9.078;2023-01-30T01:50:30;24.23;;;12.73;;
2299;SDS011;1158;48.750;9.078;2023-01-30T01:53:05;26.63;;;13.80;;
2299;SDS011;1158;48.750;9.078;2023-01-30T01:55:35;33.70;;;15.27;;
2299;SDS011;1158;48.750;9.078;2023-01-30T01:58:03;27.87;;;14.47;;
2299;SDS011;1158;48.750;9.078;2023-01-30T02:00:34;28.63;;;14.13;;
2299;SDS011;1158;48.750;9.078;2023-01-30T02:03:02;29.00;;;14.73;;
2299;SDS011;1158;48.750;9.078;2023-01-30T02:05:35;26.47;;;13.77;;
2299;SDS011;1158;48.750;9.078;2023-01-30T02:08:06;24.90;;;12.90;;
2299;SDS011;1158;48.750;9.078;2023-01-30T02:10:36;35.63;;;14.33;;
2299;SDS011;1158;48.750;9.078;2023-01-30T02:13:10;28.77;;;14.00;;
2299;SDS011;1158;48.750;9.078;2023-01-30T02:15:37;26.33;;;14.30;;
2299;SDS011;1158;48.750;9.078;2023-01-30T02:18:04;26.00;;;14.90;;
2299;SDS011;1158;48.750;9.078;2023-01-30T02:20:35;32.47;;;15.67;;
2299;SDS011;1158;48.750;9.078;2023-01-30T02:23:27;27.73;;;13.73;;
2299;SDS011;1158;48.750;9.078;2023-01-30T02:26:33;23.07;;;12.73;;
2299;SDS011;1158;48.750;9.078;2023-01-30T02:32:37;21.77;;;11.63;;
2299;SDS011;1158;48.750;9.078;2023-01-30T02:35:13;26.80;;;13.00;;
2299;SDS011;1158;48.750;9.078;2023-01-30T02:37:48;28.80;;;14.27;;
2299;SDS011;1158;48.750;9.078;2023-01-30T02:40:32;31.17;;;14.27;;
2299;SDS011;1158;48.750;9.078;2023-01-30T02:43:07;26.23;;;14.27;;
2299;SDS011;1158;48.750;9.078;2023-01-30T02:45:41;26.60;;;14.20;;
2299;SDS011;1158;48.750;9.078;2023-01-30T02:48:14;31.87;;;14.20;;
2299;SDS011;1158;48.750;9.078;2023-01-30T02:50:47;31.10;;;14.50;;
2299;SDS011;1158;48.750;9.078;2023-01-30T02:53:19;25.07;;;13.47;;
2299;SDS011;1158;48.750;9.078;2023-01-30T02:55:46;35.03;;;16.40;;
2299;SDS011;1158;48.750;9.078;2023-01-30T02:58:13;30.43;;;15.80;;
2299;SDS011;1158;48.750;9.078;2023-01-30T03:00:52;28.13;;;14.40;;
2299;SDS011;1158;48.750;9.078;2023-01-30T03:03:46;30.20;;;15.33;;
2299;SDS011;1158;48.750;9.078;2023-01-30T03:06:30;30.30;;;14.23;;
2299;SDS011;1158;48.750;9.078;2023-01-30T03:09:10;30.90;;;15.40;;
2299;SDS011;1158;48.750;9.078;2023-01-30T03:11:43;29.97;;;14.87;;
2299;SDS011;1158;48.750;9.078;2023-01-30T03:14:17;31.03;;;15.77;;
2299;SDS011;1158;48.750;9.078;2023-01-30T03:16:49;33.57;;;15.63;;
2299;SDS011;1158;48.750;9.078;2023-01-30T03:19:20;36.53;;;17.97;;
2299;SDS011;1158;48.750;9.078;2023-01-30T03:21:47;37.70;;;16.43;;
2299;SDS011;1158;48.750;9.078;2023-01-30T03:24:14;42.10;;;18.23;;
2299;SDS011;1158;48.750;9.078;2023-01-30T03:26:43;32.00;;;15.63;;
2299;SDS011;1158;48.750;9.078;2023-01-30T03:29:13;40.80;;;17.97;;
2299;SDS011;1158;48.750;9.078;2023-01-30T03:31:40;37.00;;;17.27;;
2299;SDS011;1158;48.750;9.078;2023-01-30T03:34:07;32.73;;;16.00;;
2299;SDS011;1158;48.750;9.078;2023-01-30T03:36:35;32.77;;;16.37;;
2299;SDS011;1158;48.750;9.078;2023-01-30T03:39:02;38.30;;;17.60;;
2299;SDS011;1158;48.750;9.078;2023-01-30T03:41:29;31.33;;;16.40;;
2299;SDS011;1158;48.750;9.078;2023-01-30T03:43:56;35.30;;;16.40;;
2299;SDS011;1158;48.750;9.078;2023-01-30T03:46:22;30.03;;;16.00;;
2299;SDS011;1158;48.750;9.078;2023-01-30T03:48:49;28.50;;;15.00;;
2299;SDS011;1158;48.750;9.078;2023-01-30T03:51:16;30.20;;;15.80;;
2299;SDS011;1158;48.750;9.078;2023-01-30T03:53:44;29.03;;;15.10;;
2299;SDS011;1158;48.750;9.078;2023-01-30T03:56:10;32.23;;;15.43;;
2299;SDS011;1158;48.750;9.078;2023-01-30T03:58:37;29.40;;;14.83;;
2299;SDS011;1158;48.750;9.078;2023-01-30T04:01:04;28.17;;;14.70;;
2299;SDS011;1158;48.750;9.078;2023-01-30T04:03:31;28.30;;;14.87;;
2299;SDS011;1158;48.750;9.078;2023-01-30T04:05:58;27.40;;;15.60;;
2299;SDS011;1158;48.750;9.078;2023-01-30T04:08:25;25.67;;;14.23;;
2299;SDS011;1158;48.750;9.078;2023-01-30T04:10:53;27.73;;;14.67;;
2299;SDS011;1158;48.750;9.078;2023-01-30T04:13:19;21.80;;;13.00;;
2299;SDS011;1158;48.750;9.078;2023-01-30T04:15:46;24.70;;;13.97;;
2299;SDS011;1158;48.750;9.078;2023-01-30T04:18:13;26.50;;;14.17;;
2299;SDS011;1158;48.750;9.078;2023-01-30T04:20:39;24.80;;;13.23;;
2299;SDS011;1158;48.750;9.078;2023-01-30T04:23:06;22.43;;;11.83;;
2299;SDS011;1158;48.750;9.078;2023-01-30T04:25:33;26.60;;;14.13;;
2299;SDS011;1158;48.750;9.078;2023-01-30T04:28:01;28.50;;;14.00;;
2299;SDS011;1158;48.750;9.078;2023-01-30T04:30:28;23.90;;;13.20;;
2299;SDS011;1158;48.750;9.078;2023-01-30T04:32:54;26.30;;;13.90;;
2299;SDS011;1158;48.750;9.078;2023-01-30T04:35:21;24.17;;;11.77;;
2299;SDS011;1158;48.750;9.078;2023-01-30T04:37:48;22.20;;;11.60;;
2299;SDS011;1158;48.750;9.078;2023-01-30T04:40:14;22.20;;;11.97;;
2299;SDS011;1158;48.750;9.078;2023-01-30T04:42:41;23.10;;;11.70;;
2299;SDS011;1158;48.750;9.078;2023-01-30T04:45:10;18.87;;;10.63;;
2299;SDS011;1158;48.750;9.078;2023-01-30T04:47:36;22.53;;;12.53;;
2299;SDS011;1158;48.750;9.078;2023-01-30T04:50:03;21.77;;;11.90;;
2299;SDS011;1158;48.750;9.078;2023-01-30T04:52:30;16.73;;;9.60;;
2299;SDS011;1158;48.750;9.078;2023-01-30T04:54:57;20.93;;;11.57;;
2299;SDS011;1158;48.750;9.078;2023-01-30T04:57:24;20.97;;;11.83;;
2299;SDS011;1158;48.750;9.078;2023-01-30T04:59:51;20.30;;;10.80;;
2299;SDS011;1158;48.750;9.078;2023-01-30T05:02:19;21.70;;;10.40;;
2299;SDS011;1158;48.750;9.078;2023-01-30T05:04:47;17.10;;;10.43;;
2299;SDS011;1158;48.750;9.078;2023-01-30T05:07:14;20.57;;;11.83;;
2299;SDS011;1158;48.750;9.078;2023-01-30T05:09:40;18.20;;;10.10;;
2299;SDS011;1158;48.750;9.078;2023-01-30T05:12:07;21.27;;;11.37;;
2299;SDS011;1158;48.750;9.078;2023-01-30T05:14:34;23.13;;;11.33;;
2299;SDS011;1158;48.750;9.078;2023-01-30T05:17:09;21.47;;;10.60;;
2299;SDS011;1158;48.750;9.078;2023-01-30T05:19:43;19.50;;;11.20;;
2299;SDS011;1158;48.750;9.078;2023-01-30T05:22:10;15.57;;;9.50;;
2299;SDS011;1158;48.750;9.078;2023-01-30T05:24:36;22.60;;;12.63;;
2299;SDS011;1158;48.750;9.078;2023-01-30T05:27:03;19.43;;;10.60;;
2299;SDS011;1158;48.750;9.078;2023-01-30T05:29:30;18.80;;;9.50;;
2299;SDS011;1158;48.750;9.078;2023-01-30T05:31:56;16.70;;;9.73;;
2299;SDS011;1158;48.750;9.078;2023-01-30T05:34:23;17.70;;;9.77;;
2299;SDS011;1158;48.750;9.078;2023-01-30T05:36:51;17.90;;;9.73;;
2299;SDS011;1158;48.750;9.078;2023-01-30T05:39:18;17.43;;;10.13;;
2299;SDS011;1158;48.750;9.078;2023-01-30T05:41:44;16.87;;;10.10;;
2299;SDS011;1158;48.750;9.078;2023-01-30T05:44:11;16.97;;;10.03;;
2299;SDS011;1158;48.750;9.078;2023-01-30T05:46:38;19.63;;;10.70;;
2299;SDS011;1158;48.750;9.078;2023-01-30T05:49:04;17.53;;;10.00;;
2299;SDS011;1158;48.750;9.078;2023-01-30T05:51:32;15.00;;;9.17;;
2299;SDS011;1158;48.750;9.078;2023-01-30T05:54:00;17.53;;;9.80;;
2299;SDS011;1158;48.750;9.078;2023-01-30T05:56:27;14.60;;;9.30;;
2299;SDS011;1158;48.750;9.078;2023-01-30T05:58:57;15.83;;;9.20;;
2299;SDS011;1158;48.750;9.078;2023-01-30T06:01:24;17.07;;;9.70;;
2299;SDS011;1158;48.750;9.078;2023-01-30T06:03:52;16.70;;;9.40;;
2299;SDS011;1158;48.750;9.078;2023-01-30T06:06:20;19.20;;;9.23;;
2299;SDS011;1158;48.750;9.078;2023-01-30T06:08:50;17.87;;;9.67;;
2299;SDS011;1158;48.750;9.078;2023-01-30T06:11:19;18.27;;;9.63;;
2299;SDS011;1158;48.750;9.078;2023-01-30T06:13:47;16.53;;;9.60;;
2299;SDS011;1158;48.750;9.078;2023-01-30T06:16:14;19.27;;;9.83;;
2299;SDS011;1158;48.750;9.078;2023-01-30T06:18:41;16.03;;;8.63;;
2299;SDS011;1158;48.750;9.078;2023-01-30T06:21:10;19.30;;;10.87;;
2299;SDS011;1158;48.750;9.078;2023-01-30T06:23:36;19.50;;;10.27;;
2299;SDS011;1158;48.750;9.078;2023-01-30T06:26:03;15.43;;;8.90;;
2299;SDS011;1158;48.750;9.078;2023-01-30T06:28:32;16.97;;;9.40;;
2299;SDS011;1158;48.750;9.078;2023-01-30T06:30:59;13.63;;;8.67;;
2299;SDS011;1158;48.750;9.078;2023-01-30T06:33:25;14.93;;;8.83;;
2299;SDS011;1158;48.750;9.078;2023-01-30T06:35:52;21.63;;;11.07;;
2299;SDS011;1158;48.750;9.078;2023-01-30T06:38:19;19.07;;;9.77;;
2299;SDS011;1158;48.750;9.078;2023-01-30T06:40:46;18.93;;;9.33;;
2299;SDS011;1158;48.750;9.078;2023-01-30T06:43:14;17.47;;;9.10;;
2299;SDS011;1158;48.750;9.078;2023-01-30T06:45:43;20.73;;;9.80;;
2299;SDS011;1158;48.750;9.078;2023-01-30T06:48:10;16.30;;;10.07;;
2299;SDS011;1158;48.750;9.078;2023-01-30T06:50:36;17.87;;;8.87;;
2299;SDS011;1158;48.750;9.078;2023-01-30T06:53:04;18.77;;;10.30;;
2299;SDS011;1158;48.750;9.078;2023-01-30T06:55:33;14.70;;;9.30;;
2299;SDS011;1158;48.750;9.078;2023-01-30T06:58:00;19.03;;;9.63;;
2299;SDS011;1158;48.750;9.078;2023-01-30T07:00:30;18.33;;;9.77;;
2299;SDS011;1158;48.750;9.078;2023-01-30T07:02:59;15.27;;;8.20;;
2299;SDS011;1158;48.750;9.078;2023-01-30T07:05:26;18.00;;;9.80;;
2299;SDS011;1158;48.750;9.078;2023-01-30T07:07:54;16.67;;;9.17;;
2299;SDS011;1158;48.750;9.078;2023-01-30T07:10:20;17.00;;;9.13;;
2299;SDS011;1158;48.750;9.078;2023-01-30T07:12:47;16.90;;;9.30;;
2299;SDS011;1158;48.750;9.078;2023-01-30T07:15:14;18.47;;;9.00;;
2299;SDS011;1158;48.750;9.078;2023-01-30T07:17:41;14.87;;;8.17;;
2299;SDS011;1158;48.750;9.078;2023-01-30T07:20:10;16.53;;;8.27;;
2299;SDS011;1158;48.750;9.078;2023-01-30T07:22:37;14.83;;;8.17;;
2299;SDS011;1158;48.750;9.078;2023-01-30T07:25:04;15.10;;;8.00;;
2299;SDS011;1158;48.750;9.078;2023-01-30T07:27:31;17.33;;;9.60;;
2299;SDS011;1158;48.750;9.078;2023-01-30T07:29:58;14.67;;;8.60;;
2299;SDS011;1158;48.750;9.078;2023-01-30T07:32:25;16.80;;;8.40;;
2299;SDS011;1158;48.750;9.078;2023-01-30T07:34:51;13.87;;;8.60;;
2299;SDS011;1158;48.750;9.078;2023-01-30T07:37:19;11.90;;;7.17;;
2299;SDS011;1158;48.750;9.078;2023-01-30T07:39:46;13.20;;;7.30;;
2299;SDS011;1158;48.750;9.078;2023-01-30T07:42:13;14.73;;;8.13;;
2299;SDS011;1158;48.750;9.078;2023-01-30T07:44:39;11.93;;;7.00;;
2299;SDS011;1158;48.750;9.078;2023-01-30T07:47:06;11.67;;;7.07;;
2299;SDS011;1158;48.750;9.078;2023-01-30T07:49:33;13.40;;;7.60;;
2299;SDS011;1158;48.750;9.078;2023-01-30T07:52:00;14.03;;;7.97;;
2299;SDS011;1158;48.750;9.078;2023-01-30T07:54:28;13.67;;;7.90;;
2299;SDS011;1158;48.750;9.078;2023-01-30T07:56:55;13.53;;;7.83;;
2299;SDS011;1158;48.750;9.078;2023-01-30T07:59:22;12.77;;;8.80;;
2299;SDS011;1158;48.750;9.078;2023-01-30T08:01:48;12.83;;;7.00;;
2299;SDS011;1158;48.750;9.078;2023-01-30T08:04:15;11.90;;;7.20;;
2299;SDS011;1158;48.750;9.078;2023-01-30T08:06:42;11.63;;;6.97;;
2299;SDS011;1158;48.750;9.078;2023-01-30T08:09:08;14.23;;;8.90;;
2299;SDS011;1158;48.750;9.078;2023-01-30T08:11:36;13.80;;;8.23;;
2299;SDS011;1158;48.750;9.078;2023-01-30T08:14:03;16.53;;;8.07;;
2299;SDS011;1158;48.750;9.078;2023-01-30T08:16:30;13.90;;;7.57;;
2299;SDS011;1158;48.750;9.078;2023-01-30T08:18:58;13.70;;;8.63;;
2299;SDS011;1158;48.750;9.078;2023-01-30T08:21:24;14.43;;;9.10;;
2299;SDS011;1158;48.750;9.078;2023-01-30T08:23:52;16.50;;;8.50;;
2299;SDS011;1158;48.750;9.078;2023-01-30T08:26:18;13.00;;;7.70;;
2299;SDS011;1158;48.750;9.078;2023-01-30T08:28:46;12.47;;;7.80;;
2299;SDS011;1158;48.750;9.078;2023-01-30T08:31:14;14.00;;;8.40;;
2299;SDS011;1158;48.750;9.078;2023-01-30T08:33:42;16.03;;;8.03;;
2299;SDS011;1158;48.750;9.078;2023-01-30T08:36:09;15.03;;;8.67;;
2299;SDS011;1158;48.750;9.078;2023-01-30T08:38:35;14.83;;;7.70;;
2299;SDS011;1158;48.750;9.078;2023-01-30T08:41:03;14.10;;;8.20;;
2299;SDS011;1158;48.750;9.078;2023-01-30T08:43:31;18.27;;;8.70;;
2299;SDS011;1158;48.750;9.078;2023-01-30T08:45:59;12.80;;;7.90;;
2299;SDS011;1158;48.750;9.078;2023-01-30T08:48:26;13.63;;;7.87;;
2299;SDS011;1158;48.750;9.078;2023-01-30T08:50:53;11.50;;;6.37;;
2299;SDS011;1158;48.750;9.078;2023-01-30T08:53:21;11.77;;;6.90;;
2299;SDS011;1158;48.750;9.078;2023-01-30T08:55:48;13.00;;;7.07;;
2299;SDS011;1158;48.750;9.078;2023-01-30T08:58:15;12.93;;;7.00;;
2299;SDS011;1158;48.750;9.078;2023-01-30T09:00:42;10.10;;;6.73;;
2299;SDS011;1158;48.750;9.078;2023-01-30T09:03:11;14.60;;;7.80;;
2299;SDS011;1158;48.750;9.078;2023-01-30T09:05:38;10.23;;;6.63;;
2299;SDS011;1158;48.750;9.078;2023-01-30T09:08:05;9.23;;;6.10;;
2299;SDS011;1158;48.750;9.078;2023-01-30T09:10:32;11.40;;;6.70;;
2299;SDS011;1158;48.750;9.078;2023-01-30T09:12:59;11.33;;;6.43;;
2299;SDS011;1158;48.750;9.078;2023-01-30T09:15:25;10.93;;;6.60;;
2299;SDS011;1158;48.750;9.078;2023-01-30T09:17:52;8.30;;;5.40;;
2299;SDS011;1158;48.750;9.078;2023-01-30T09:20:20;10.80;;;5.90;;
2299;SDS011;1158;48.750;9.078;2023-01-30T09:22:47;8.07;;;5.10;;
2299;SDS011;1158;48.750;9.078;2023-01-30T09:25:14;9.30;;;5.37;;
2299;SDS011;1158;48.750;9.078;2023-01-30T09:27:41;9.40;;;6.40;;
2299;SDS011;1158;48.750;9.078;2023-01-30T09:30:09;10.03;;;5.67;;
2299;SDS011;1158;48.750;9.078;2023-01-30T09:32:37;10.43;;;5.70;;
2299;SDS011;1158;48.750;9.078;2023-01-30T09:35:04;7.60;;;5.20;;
2299;SDS011;1158;48.750;9.078;2023-01-30T09:37:33;8.20;;;5.60;;
2299;SDS011;1158;48.750;9.078;2023-01-30T09:40:00;8.70;;;5.20;;
2299;SDS011;1158;48.750;9.078;2023-01-30T09:42:31;8.60;;;5.00;;
2299;SDS011;1158;48.750;9.078;2023-01-30T09:45:26;10.03;;;6.07;;
2299;SDS011;1158;48.750;9.078;2023-01-30T09:48:11;10.23;;;5.17;;
2299;SDS011;1158;48.750;9.078;2023-01-30T09:50:45;7.73;;;5.33;;
2299;SDS011;1158;48.750;9.078;2023-01-30T09:53:40;7.93;;;4.63;;
2299;SDS011;1158;48.750;9.078;2023-01-30T09:56:16;8.50;;;5.13;;
2299;SDS011;1158;48.750;9.078;2023-01-30T09:58:44;9.17;;;5.07;;
2299;SDS011;1158;48.750;9.078;2023-01-30T10:01:15;7.13;;;4.50;;
2299;SDS011;1158;48.750;9.078;2023-01-30T10:03:51;7.83;;;4.43;;
2299;SDS011;1158;48.750;9.078;2023-01-30T10:06:26;7.07;;;4.10;;
2299;SDS011;1158;48.750;9.078;2023-01-30T10:08:56;8.77;;;5.07;;
2299;SDS011;1158;48.750;9.078;2023-01-30T10:11:32;8.67;;;4.80;;
2299;SDS011;1158;48.750;9.078;2023-01-30T10:14:17;7.50;;;5.27;;
2299;SDS011;1158;48.750;9.078;2023-01-30T10:16:55;11.30;;;5.43;;
2299;SDS011;1158;48.750;9.078;2023-01-30T10:19:42;8.70;;;4.93;;
2299;SDS011;1158;48.750;9.078;2023-01-30T10:22:24;12.17;;;5.47;;
2299;SDS011;1158;48.750;9.078;2023-01-30T10:25:04;6.20;;;4.47;;
2299;SDS011;1158;48.750;9.078;2023-01-30T10:27:44;9.30;;;5.50;;
2299;SDS011;1158;48.750;9.078;2023-01-30T10:30:15;8.43;;;4.27;;
2299;SDS011;1158;48.750;9.078;2023-01-30T10:32:43;8.80;;;4.60;;
2299;SDS011;1158;48.750;9.078;2023-01-30T10:35:15;6.63;;;3.90;;
2299;SDS011;1158;48.750;9.078;2023-01-30T10:37:45;7.07;;;4.00;;
2299;SDS011;1158;48.750;9.078;2023-01-30T10:40:23;5.40;;;3.47;;
2299;SDS011;1158;48.750;9.078;2023-01-30T10:42:55;7.27;;;2.93;;
2299;SDS011;1158;48.750;9.078;2023-01-30T10:45:29;7.80;;;2.37;;
2299;SDS011;1158;48.750;9.078;2023-01-30T10:48:09;5.23;;;2.80;;
2299;SDS011;1158;48.750;9.078;2023-01-30T10:50:48;3.33;;;2.53;;
2299;SDS011;1158;48.750;9.078;2023-01-30T10:53:20;3.87;;;2.37;;
2299;SDS011;1158;48.750;9.078;2023-01-30T10:55:54;4.10;;;2.27;;
2299;SDS011;1158;48.750;9.078;2023-01-30T10:58:26;5.50;;;2.70;;
2299;SDS011;1158;48.750;9.078;2023-01-30T11:00:58;3.80;;;2.20;;
2299;SDS011;1158;48.750;9.078;2023-01-30T11:03:28;5.97;;;2.70;;
2299;SDS011;1158;48.750;9.078;2023-01-30T11:06:04;4.47;;;2.20;;
2299;SDS011;1158;48.750;9.078;2023-01-30T11:08:33;3.33;;;2.20;;
2299;SDS011;1158;48.750;9.078;2023-01-30T11:11:12;5.70;;;2.53;;
2299;SDS011;1158;48.750;9.078;2023-01-30T11:13:50;6.27;;;2.70;;
2299;SDS011;1158;48.750;9.078;2023-01-30T11:16:26;4.77;;;2.67;;
2299;SDS011;1158;48.750;9.078;2023-01-30T11:18:53;5.33;;;2.77;;
2299;SDS011;1158;48.750;9.078;2023-01-30T11:21:23;6.43;;;3.33;;
2299;SDS011;1158;48.750;9.078;2023-01-30T11:23:52;5.47;;;3.27;;
2299;SDS011;1158;48.750;9.078;2023-01-30T11:26:21;6.30;;;4.07;;
2299;SDS011;1158;48.750;9.078;2023-01-30T11:28:49;7.63;;;4.10;;
2299;SDS011;1158;48.750;9.078;2023-01-30T11:31:17;9.30;;;4.77;;
2299;SDS011;1158;48.750;9.078;2023-01-30T11:33:45;8.70;;;4.23;;
2299;SDS011;1158;48.750;9.078;2023-01-30T11:36:26;8.10;;;5.40;;
2299;SDS011;1158;48.750;9.078;2023-01-30T11:38:56;9.80;;;5.47;;
2299;SDS011;1158;48.750;9.078;2023-01-30T11:41:26;8.53;;;5.10;;
2299;SDS011;1158;48.750;9.078;2023-01-30T11:43:58;7.40;;;4.50;;
2299;SDS011;1158;48.750;9.078;2023-01-30T11:46:27;10.40;;;4.90;;
2299;SDS011;1158;48.750;9.078;2023-01-30T11:48:57;9.40;;;5.20;;
2299;SDS011;1158;48.750;9.078;2023-01-30T11:51:27;9.50;;;5.53;;
2299;SDS011;1158;48.750;9.078;2023-01-30T11:53:57;9.80;;;5.40;;
2299;SDS011;1158;48.750;9.078;2023-01-30T11:56:29;11.07;;;5.90;;
2299;SDS011;1158;48.750;9.078;2023-01-30T11:59:00;11.60;;;6.13;;
2299;SDS011;1158;48.750;9.078;2023-01-30T12:01:30;11.17;;;5.57;;
2299;SDS011;1158;48.750;9.078;2023-01-30T12:03:59;24.83;;;5.20;;
2299;SDS011;1158;48.750;9.078;2023-01-30T12:06:28;10.00;;;6.00;;
2299;SDS011;1158;48.750;9.078;2023-01-30T12:08:56;8.97;;;5.13;;
2299;SDS011;1158;48.750;9.078;2023-01-30T12:11:25;13.73;;;5.70;;
2299;SDS011;1158;48.750;9.078;2023-01-30T12:13:58;13.70;;;6.33;;
2299;SDS011;1158;48.750;9.078;2023-01-30T12:16:41;11.93;;;6.90;;
2299;SDS011;1158;48.750;9.078;2023-01-30T12:19:22;13.10;;;6.87;;
2299;SDS011;1158;48.750;9.078;2023-01-30T12:22:00;10.43;;;5.77;;
2299;SDS011;1158;48.750;9.078;2023-01-30T12:24:34;11.03;;;5.23;;
2299;SDS011;1158;48.750;9.078;2023-01-30T12:27:08;10.83;;;5.53;;
2299;SDS011;1158;48.750;9.078;2023-01-30T12:29:42;13.23;;;5.80;;
2299;SDS011;1158;48.750;9.078;2023-01-30T12:32:19;9.80;;;5.20;;
2299;SDS011;1158;48.750;9.078;2023-01-30T12:34:50;10.37;;;6.33;;
2299;SDS011;1158;48.750;9.078;2023-01-30T12:37:22;15.43;;;7.27;;
2299;SDS011;1158;48.750;9.078;2023-01-30T12:40:12;10.30;;;5.60;;
2299;SDS011;1158;48.750;9.078;2023-01-30T12:42:54;12.30;;;7.10;;
2299;SDS011;1158;48.750;9.078;2023-01-30T12:45:33;9.37;;;5.77;;
2299;SDS011;1158;48.750;9.078;2023-01-30T12:48:21;9.80;;;6.00;;
2299;SDS011;1158;48.750;9.078;2023-01-30T12:51:08;10.90;;;5.07;;
2299;SDS011;1158;48.750;9.078;2023-01-30T12:53:49;7.67;;;4.73;;
2299;SDS011;1158;48.750;9.078;2023-01-30T12:56:33;10.90;;;5.30;;
2299;SDS011;1158;48.750;9.078;2023-01-30T12:59:18;9.87;;;4.67;;
2299;SDS011;1158;48.750;9.078;2023-01-30T13:01:54;9.20;;;4.50;;
2299;SDS011;1158;48.750;9.078;2023-01-30T13:04:34;9.83;;;5.03;;
2299;SDS011;1158;48.750;9.078;2023-01-30T13:07:07;8.27;;;5.60;;
2299;SDS011;1158;48.750;9.078;2023-01-30T13:09:47;5.83;;;4.17;;
2299;SDS011;1158;48.750;9.078;2023-01-30T13:12:28;7.57;;;4.30;;
2299;SDS011;1158;48.750;9.078;2023-01-30T13:15:03;7.43;;;4.93;;
2299;SDS011;1158;48.750;9.078;2023-01-30T13:17:46;6.90;;;4.60;;
2299;SDS011;1158;48.750;9.078;2023-01-30T13:20:26;8.47;;;4.90;;
2299;SDS011;1158;48.750;9.078;2023-01-30T13:23:10;5.83;;;3.43;;
2299;SDS011;1158;48.750;9.078;2023-01-30T13:25:43;7.80;;;4.73;;
2299;SDS011;1158;48.750;9.078;2023-01-30T13:28:18;7.83;;;4.77;;
2299;SDS011;1158;48.750;9.078;2023-01-30T13:30:49;8.00;;;4.87;;
2299;SDS011;1158;48.750;9.078;2023-01-30T13:33:20;8.93;;;4.70;;
2299;SDS011;1158;48.750;9.078;2023-01-30T13:35:51;9.70;;;4.53;;
2299;SDS011;1158;48.750;9.078;2023-01-30T13:38:21;9.10;;;3.83;;
2299;SDS011;1158;48.750;9.078;2023-01-30T13:40:51;5.93;;;4.27;;
2299;SDS011;1158;48.750;9.078;2023-01-30T13:43:21;8.43;;;4.60;;
2299;SDS011;1158;48.750;9.078;2023-01-30T13:45:53;8.63;;;4.30;;
2299;SDS011;1158;48.750;9.078;2023-01-30T13:48:34;5.67;;;3.77;;
2299;SDS011;1158;48.750;9.078;2023-01-30T13:51:15;6.37;;;3.70;;
2299;SDS011;1158;48.750;9.078;2023-01-30T13:53:52;11.40;;;4.00;;
2299;SDS011;1158;48.750;9.078;2023-01-30T13:56:26;5.83;;;3.53;;
2299;SDS011;1158;48.750;9.078;2023-01-30T13:59:00;5.37;;;2.93;;
2299;SDS011;1158;48.750;9.078;2023-01-30T14:04:51;6.37;;;2.87;;
2299;SDS011;1158;48.750;9.078;2023-01-30T14:07:20;7.07;;;2.90;;
2299;SDS011;1158;48.750;9.078;2023-01-30T14:09:51;7.23;;;2.90;;
2299;SDS011;1158;48.750;9.078;2023-01-30T14:12:31;5.67;;;2.83;;
2299;SDS011;1158;48.750;9.078;2023-01-30T14:15:02;5.03;;;3.10;;
2299;SDS011;1158;48.750;9.078;2023-01-30T14:17:31;5.10;;;2.70;;
2299;SDS011;1158;48.750;9.078;2023-01-30T14:20:00;4.23;;;2.77;;
2299;SDS011;1158;48.750;9.078;2023-01-30T14:22:31;4.00;;;2.50;;
2299;SDS011;1158;48.750;9.078;2023-01-30T14:34:37;3.87;;;2.27;;
2299;SDS011;1158;48.750;9.078;2023-01-30T14:39:52;3.50;;;2.17;;
2299;SDS011;1158;48.750;9.078;2023-01-30T14:42:21;2.60;;;1.77;;
2299;SDS011;1158;48.750;9.078;2023-01-30T14:44:57;2.57;;;1.70;;
2299;SDS011;1158;48.750;9.078;2023-01-30T14:47:26;4.07;;;1.83;;
2299;SDS011;1158;48.750;9.078;2023-01-30T14:49:54;3.40;;;2.00;;
2299;SDS011;1158;48.750;9.078;2023-01-30T14:52:27;4.97;;;2.40;;
2299;SDS011;1158;48.750;9.078;2023-01-30T14:54:59;3.27;;;2.40;;
2299;SDS011;1158;48.750;9.078;2023-01-30T14:57:26;4.60;;;3.27;;
2299;SDS011;1158;48.750;9.078;2023-01-30T14:59:57;5.40;;;3.20;;
2299;SDS011;1158;48.750;9.078;2023-01-30T15:02:27;5.47;;;3.10;;
2299;SDS011;1158;48.750;9.078;2023-01-30T15:05:01;5.80;;;3.33;;
2299;SDS011;1158;48.750;9.078;2023-01-30T15:07:34;8.30;;;4.00;;
2299;SDS011;1158;48.750;9.078;2023-01-30T15:10:04;6.37;;;3.70;;
2299;SDS011;1158;48.750;9.078;2023-01-30T15:12:49;6.70;;;3.37;;
2299;SDS011;1158;48.750;9.078;2023-01-30T15:15:31;7.23;;;3.77;;
2299;SDS011;1158;48.750;9.078;2023-01-30T15:18:08;6.97;;;3.67;;
2299;SDS011;1158;48.750;9.078;2023-01-30T15:20:48;6.10;;;3.83;;
2299;SDS011;1158;48.750;9.078;2023-01-30T15:26:35;8.07;;;4.27;;
2299;SDS011;1158;48.750;9.078;2023-01-30T15:29:21;7.20;;;4.20;;
2299;SDS011;1158;48.750;9.078;2023-01-30T15:31:57;6.33;;;4.00;;
2299;SDS011;1158;48.750;9.078;2023-01-30T15:34:46;8.53;;;4.33;;
2299;SDS011;1158;48.750;9.078;2023-01-30T15:37:30;10.53;;;4.97;;
2299;SDS011;1158;48.750;9.078;2023-01-30T15:40:16;6.80;;;4.50;;
2299;SDS011;1158;48.750;9.078;2023-01-30T15:42:45;7.90;;;4.30;;
2299;SDS011;1158;48.750;9.078;2023-01-30T15:45:14;6.87;;;4.00;;